Aviation Digital Data Service (ADDS)

Output produced by METARs form (0722 UTC 24 April 2014)
found at http://aviationweather.gov/adds/metars/
 
KRME 240531Z 2406/2506 30007KT P6SM SKC 
     FM241400 30012G22KT P6SM SCT250 
     FM242300 32005KT P6SM SCT250